sensor_id;sensor_type;location;lat;lon;timestamp;P1;durP1;ratioP1;P2;durP2;ratioP2
10416;SDS011;5255;49.432;8.680;2022-07-22T00:00:14;9.35;;;4.80;;
10416;SDS011;5255;49.432;8.680;2022-07-22T00:02:42;7.28;;;4.88;;
10416;SDS011;5255;49.432;8.680;2022-07-22T00:05:09;6.32;;;5.18;;
10416;SDS011;5255;49.432;8.680;2022-07-22T00:07:36;6.40;;;4.65;;
10416;SDS011;5255;49.432;8.680;2022-07-22T00:10:06;5.93;;;4.55;;
10416;SDS011;5255;49.432;8.680;2022-07-22T00:12:36;6.90;;;5.10;;
10416;SDS011;5255;49.432;8.680;2022-07-22T00:15:03;9.05;;;4.93;;
10416;SDS011;5255;49.432;8.680;2022-07-22T00:17:31;6.60;;;4.97;;
10416;SDS011;5255;49.432;8.680;2022-07-22T00:19:58;5.78;;;4.82;;
10416;SDS011;5255;49.432;8.680;2022-07-22T00:22:25;7.18;;;4.90;;
10416;SDS011;5255;49.432;8.680;2022-07-22T00:24:52;6.85;;;4.43;;
10416;SDS011;5255;49.432;8.680;2022-07-22T00:27:21;6.90;;;5.07;;
10416;SDS011;5255;49.432;8.680;2022-07-22T00:29:48;6.35;;;5.25;;
10416;SDS011;5255;49.432;8.680;2022-07-22T00:32:15;4.68;;;4.28;;
10416;SDS011;5255;49.432;8.680;2022-07-22T00:34:42;6.10;;;5.03;;
10416;SDS011;5255;49.432;8.680;2022-07-22T00:37:09;8.73;;;4.72;;
10416;SDS011;5255;49.432;8.680;2022-07-22T00:39:36;8.60;;;5.22;;
10416;SDS011;5255;49.432;8.680;2022-07-22T00:42:03;6.93;;;4.63;;
10416;SDS011;5255;49.432;8.680;2022-07-22T00:44:31;7.53;;;4.75;;
10416;SDS011;5255;49.432;8.680;2022-07-22T00:46:59;6.25;;;4.90;;
10416;SDS011;5255;49.432;8.680;2022-07-22T00:49:26;6.40;;;5.45;;
10416;SDS011;5255;49.432;8.680;2022-07-22T00:51:53;7.78;;;4.95;;
10416;SDS011;5255;49.432;8.680;2022-07-22T00:54:20;7.70;;;4.75;;
10416;SDS011;5255;49.432;8.680;2022-07-22T00:56:47;6.75;;;5.28;;
10416;SDS011;5255;49.432;8.680;2022-07-22T00:59:14;6.07;;;4.93;;
10416;SDS011;5255;49.432;8.680;2022-07-22T01:01:43;5.30;;;4.55;;
10416;SDS011;5255;49.432;8.680;2022-07-22T01:04:10;7.40;;;5.03;;
10416;SDS011;5255;49.432;8.680;2022-07-22T01:06:37;9.45;;;5.10;;
10416;SDS011;5255;49.432;8.680;2022-07-22T01:09:04;5.80;;;4.97;;
10416;SDS011;5255;49.432;8.680;2022-07-22T01:11:31;7.15;;;5.18;;
10416;SDS011;5255;49.432;8.680;2022-07-22T01:13:58;7.07;;;4.85;;
10416;SDS011;5255;49.432;8.680;2022-07-22T01:16:25;7.05;;;4.72;;
10416;SDS011;5255;49.432;8.680;2022-07-22T01:18:54;5.65;;;4.43;;
10416;SDS011;5255;49.432;8.680;2022-07-22T01:21:23;7.72;;;5.47;;
10416;SDS011;5255;49.432;8.680;2022-07-22T01:23:50;4.80;;;4.20;;
10416;SDS011;5255;49.432;8.680;2022-07-22T01:26:17;5.85;;;4.78;;
10416;SDS011;5255;49.432;8.680;2022-07-22T01:28:44;6.32;;;4.93;;
10416;SDS011;5255;49.432;8.680;2022-07-22T01:31:11;5.30;;;4.43;;
10416;SDS011;5255;49.432;8.680;2022-07-22T01:33:38;6.30;;;4.07;;
10416;SDS011;5255;49.432;8.680;2022-07-22T01:36:06;7.25;;;4.78;;
10416;SDS011;5255;49.432;8.680;2022-07-22T01:38:35;4.70;;;3.92;;
10416;SDS011;5255;49.432;8.680;2022-07-22T01:41:02;6.15;;;5.10;;
10416;SDS011;5255;49.432;8.680;2022-07-22T01:43:30;6.03;;;5.28;;
10416;SDS011;5255;49.432;8.680;2022-07-22T01:45:57;8.38;;;4.80;;
10416;SDS011;5255;49.432;8.680;2022-07-22T01:48:24;5.97;;;4.45;;
10416;SDS011;5255;49.432;8.680;2022-07-22T01:50:51;5.65;;;4.70;;
10416;SDS011;5255;49.432;8.680;2022-07-22T01:53:18;6.30;;;4.45;;
10416;SDS011;5255;49.432;8.680;2022-07-22T01:55:47;5.20;;;4.57;;
10416;SDS011;5255;49.432;8.680;2022-07-22T01:58:14;8.63;;;4.93;;
10416;SDS011;5255;49.432;8.680;2022-07-22T02:00:42;5.18;;;4.53;;
10416;SDS011;5255;49.432;8.680;2022-07-22T02:03:09;6.32;;;4.65;;
10416;SDS011;5255;49.432;8.680;2022-07-22T02:05:36;6.30;;;4.68;;
10416;SDS011;5255;49.432;8.680;2022-07-22T02:08:05;6.50;;;4.82;;
10416;SDS011;5255;49.432;8.680;2022-07-22T02:10:33;5.80;;;4.55;;
10416;SDS011;5255;49.432;8.680;2022-07-22T02:13:02;5.93;;;4.85;;
10416;SDS011;5255;49.432;8.680;2022-07-22T02:15:30;5.75;;;4.85;;
10416;SDS011;5255;49.432;8.680;2022-07-22T02:17:57;5.28;;;4.50;;
10416;SDS011;5255;49.432;8.680;2022-07-22T02:20:25;6.47;;;4.55;;
10416;SDS011;5255;49.432;8.680;2022-07-22T02:22:52;6.15;;;4.53;;
10416;SDS011;5255;49.432;8.680;2022-07-22T02:25:19;6.65;;;4.70;;
10416;SDS011;5255;49.432;8.680;2022-07-22T02:27:46;5.85;;;4.43;;
10416;SDS011;5255;49.432;8.680;2022-07-22T02:30:15;9.10;;;4.57;;
10416;SDS011;5255;49.432;8.680;2022-07-22T02:32:42;7.28;;;4.63;;
10416;SDS011;5255;49.432;8.680;2022-07-22T02:35:09;7.82;;;4.70;;
10416;SDS011;5255;49.432;8.680;2022-07-22T02:37:36;8.07;;;5.00;;
10416;SDS011;5255;49.432;8.680;2022-07-22T02:40:04;5.82;;;4.57;;
10416;SDS011;5255;49.432;8.680;2022-07-22T02:42:32;6.38;;;4.63;;
10416;SDS011;5255;49.432;8.680;2022-07-22T02:45:00;4.60;;;4.00;;
10416;SDS011;5255;49.432;8.680;2022-07-22T02:47:29;5.90;;;4.40;;
10416;SDS011;5255;49.432;8.680;2022-07-22T02:49:56;6.60;;;4.75;;
10416;SDS011;5255;49.432;8.680;2022-07-22T02:52:23;5.78;;;4.70;;
10416;SDS011;5255;49.432;8.680;2022-07-22T02:54:51;6.18;;;4.70;;
10416;SDS011;5255;49.432;8.680;2022-07-22T02:57:18;5.55;;;4.75;;
10416;SDS011;5255;49.432;8.680;2022-07-22T02:59:45;6.32;;;4.45;;
10416;SDS011;5255;49.432;8.680;2022-07-22T03:02:12;5.82;;;4.45;;
10416;SDS011;5255;49.432;8.680;2022-07-22T03:04:40;8.43;;;4.88;;
10416;SDS011;5255;49.432;8.680;2022-07-22T03:07:07;4.60;;;3.90;;
10416;SDS011;5255;49.432;8.680;2022-07-22T03:09:34;4.95;;;3.97;;
10416;SDS011;5255;49.432;8.680;2022-07-22T03:12:01;5.55;;;4.05;;
10416;SDS011;5255;49.432;8.680;2022-07-22T03:14:28;5.70;;;4.20;;
10416;SDS011;5255;49.432;8.680;2022-07-22T03:16:55;5.72;;;4.72;;
10416;SDS011;5255;49.432;8.680;2022-07-22T03:19:23;6.00;;;4.45;;
10416;SDS011;5255;49.432;8.680;2022-07-22T03:21:51;5.32;;;4.22;;
10416;SDS011;5255;49.432;8.680;2022-07-22T03:24:18;6.47;;;4.57;;
10416;SDS011;5255;49.432;8.680;2022-07-22T03:26:45;4.97;;;4.32;;
10416;SDS011;5255;49.432;8.680;2022-07-22T03:29:12;6.25;;;4.55;;
10416;SDS011;5255;49.432;8.680;2022-07-22T03:31:39;5.10;;;4.57;;
10416;SDS011;5255;49.432;8.680;2022-07-22T03:34:06;5.43;;;4.15;;
10416;SDS011;5255;49.432;8.680;2022-07-22T03:36:33;7.00;;;4.57;;
10416;SDS011;5255;49.432;8.680;2022-07-22T03:39:02;8.30;;;4.70;;
10416;SDS011;5255;49.432;8.680;2022-07-22T03:41:30;6.28;;;4.80;;
10416;SDS011;5255;49.432;8.680;2022-07-22T03:43:57;6.45;;;4.82;;
10416;SDS011;5255;49.432;8.680;2022-07-22T03:46:24;5.75;;;4.85;;
10416;SDS011;5255;49.432;8.680;2022-07-22T03:48:51;6.07;;;4.40;;
10416;SDS011;5255;49.432;8.680;2022-07-22T03:51:18;5.22;;;4.70;;
10416;SDS011;5255;49.432;8.680;2022-07-22T03:53:45;8.20;;;5.35;;
10416;SDS011;5255;49.432;8.680;2022-07-22T03:56:13;9.25;;;5.43;;
10416;SDS011;5255;49.432;8.680;2022-07-22T03:58:41;6.55;;;4.95;;
10416;SDS011;5255;49.432;8.680;2022-07-22T04:01:08;6.32;;;4.93;;
10416;SDS011;5255;49.432;8.680;2022-07-22T04:03:35;7.55;;;5.80;;
10416;SDS011;5255;49.432;8.680;2022-07-22T04:06:02;5.78;;;4.80;;
10416;SDS011;5255;49.432;8.680;2022-07-22T04:08:31;6.35;;;5.13;;
10416;SDS011;5255;49.432;8.680;2022-07-22T04:10:58;6.72;;;5.47;;
10416;SDS011;5255;49.432;8.680;2022-07-22T04:13:27;7.47;;;5.13;;
10416;SDS011;5255;49.432;8.680;2022-07-22T04:15:54;7.82;;;4.22;;
10416;SDS011;5255;49.432;8.680;2022-07-22T04:18:21;6.25;;;4.57;;
10416;SDS011;5255;49.432;8.680;2022-07-22T04:20:48;5.35;;;4.60;;
10416;SDS011;5255;49.432;8.680;2022-07-22T04:23:15;5.47;;;3.45;;
10416;SDS011;5255;49.432;8.680;2022-07-22T04:25:42;7.57;;;4.70;;
10416;SDS011;5255;49.432;8.680;2022-07-22T04:28:10;5.35;;;4.20;;
10416;SDS011;5255;49.432;8.680;2022-07-22T04:30:39;6.55;;;4.50;;
10416;SDS011;5255;49.432;8.680;2022-07-22T04:33:06;7.03;;;5.13;;
10416;SDS011;5255;49.432;8.680;2022-07-22T04:35:33;6.18;;;4.60;;
10416;SDS011;5255;49.432;8.680;2022-07-22T04:38:00;7.60;;;5.05;;
10416;SDS011;5255;49.432;8.680;2022-07-22T04:40:27;5.97;;;4.97;;
10416;SDS011;5255;49.432;8.680;2022-07-22T04:42:54;6.30;;;4.35;;
10416;SDS011;5255;49.432;8.680;2022-07-22T04:45:21;4.80;;;3.92;;
10416;SDS011;5255;49.432;8.680;2022-07-22T04:47:50;5.63;;;4.53;;
10416;SDS011;5255;49.432;8.680;2022-07-22T04:50:17;5.60;;;4.57;;
10416;SDS011;5255;49.432;8.680;2022-07-22T04:52:44;5.75;;;4.95;;
10416;SDS011;5255;49.432;8.680;2022-07-22T04:55:11;7.53;;;5.68;;
10416;SDS011;5255;49.432;8.680;2022-07-22T04:57:38;7.45;;;5.10;;
10416;SDS011;5255;49.432;8.680;2022-07-22T05:00:06;8.68;;;4.72;;
10416;SDS011;5255;49.432;8.680;2022-07-22T05:02:34;7.35;;;4.57;;
10416;SDS011;5255;49.432;8.680;2022-07-22T05:05:03;5.78;;;3.95;;
10416;SDS011;5255;49.432;8.680;2022-07-22T05:07:30;4.93;;;3.97;;
10416;SDS011;5255;49.432;8.680;2022-07-22T05:09:57;7.68;;;4.65;;
10416;SDS011;5255;49.432;8.680;2022-07-22T05:12:24;6.05;;;4.25;;
10416;SDS011;5255;49.432;8.680;2022-07-22T05:14:51;5.63;;;4.70;;
10416;SDS011;5255;49.432;8.680;2022-07-22T05:17:18;5.85;;;4.72;;
10416;SDS011;5255;49.432;8.680;2022-07-22T05:19:45;9.20;;;5.22;;
10416;SDS011;5255;49.432;8.680;2022-07-22T05:22:14;6.95;;;4.95;;
10416;SDS011;5255;49.432;8.680;2022-07-22T05:24:41;6.57;;;4.75;;
10416;SDS011;5255;49.432;8.680;2022-07-22T05:27:08;8.88;;;5.30;;
10416;SDS011;5255;49.432;8.680;2022-07-22T05:29:35;7.20;;;4.78;;
10416;SDS011;5255;49.432;8.680;2022-07-22T05:32:02;7.30;;;4.80;;
10416;SDS011;5255;49.432;8.680;2022-07-22T05:34:30;10.85;;;5.53;;
10416;SDS011;5255;49.432;8.680;2022-07-22T05:36:57;5.93;;;4.40;;
10416;SDS011;5255;49.432;8.680;2022-07-22T05:39:25;6.18;;;4.45;;
10416;SDS011;5255;49.432;8.680;2022-07-22T05:41:53;6.57;;;4.78;;
10416;SDS011;5255;49.432;8.680;2022-07-22T05:44:20;5.43;;;4.13;;
10416;SDS011;5255;49.432;8.680;2022-07-22T05:46:47;5.88;;;3.95;;
10416;SDS011;5255;49.432;8.680;2022-07-22T05:49:15;5.32;;;4.45;;
10416;SDS011;5255;49.432;8.680;2022-07-22T05:51:42;6.13;;;3.95;;
10416;SDS011;5255;49.432;8.680;2022-07-22T05:54:09;4.32;;;3.63;;
10416;SDS011;5255;49.432;8.680;2022-07-22T05:56:38;4.63;;;3.75;;
10416;SDS011;5255;49.432;8.680;2022-07-22T05:59:05;4.88;;;4.10;;
10416;SDS011;5255;49.432;8.680;2022-07-22T06:01:32;4.32;;;3.92;;
10416;SDS011;5255;49.432;8.680;2022-07-22T06:03:59;5.22;;;3.47;;
10416;SDS011;5255;49.432;8.680;2022-07-22T06:06:26;5.07;;;3.97;;
10416;SDS011;5255;49.432;8.680;2022-07-22T06:08:53;4.50;;;3.95;;
10416;SDS011;5255;49.432;8.680;2022-07-22T06:11:21;5.18;;;4.05;;
10416;SDS011;5255;49.432;8.680;2022-07-22T06:13:49;5.50;;;4.03;;
10416;SDS011;5255;49.432;8.680;2022-07-22T06:16:17;5.00;;;3.60;;
10416;SDS011;5255;49.432;8.680;2022-07-22T06:18:45;5.63;;;4.30;;
10416;SDS011;5255;49.432;8.680;2022-07-22T06:21:12;7.72;;;4.10;;
10416;SDS011;5255;49.432;8.680;2022-07-22T06:23:39;6.80;;;4.10;;
10416;SDS011;5255;49.432;8.680;2022-07-22T06:26:06;5.03;;;3.70;;
10416;SDS011;5255;49.432;8.680;2022-07-22T06:28:33;5.95;;;4.03;;
10416;SDS011;5255;49.432;8.680;2022-07-22T06:31:02;5.00;;;4.13;;
10416;SDS011;5255;49.432;8.680;2022-07-22T06:33:32;7.72;;;3.80;;
10416;SDS011;5255;49.432;8.680;2022-07-22T06:35:59;6.95;;;4.07;;
10416;SDS011;5255;49.432;8.680;2022-07-22T06:38:27;5.78;;;3.95;;
10416;SDS011;5255;49.432;8.680;2022-07-22T06:40:54;4.97;;;4.07;;
10416;SDS011;5255;49.432;8.680;2022-07-22T06:43:21;4.47;;;4.07;;
10416;SDS011;5255;49.432;8.680;2022-07-22T06:45:52;7.47;;;3.97;;
10416;SDS011;5255;49.432;8.680;2022-07-22T06:48:20;5.13;;;3.92;;
10416;SDS011;5255;49.432;8.680;2022-07-22T06:50:47;6.07;;;4.05;;
10416;SDS011;5255;49.432;8.680;2022-07-22T06:53:14;5.47;;;4.25;;
10416;SDS011;5255;49.432;8.680;2022-07-22T06:55:41;4.85;;;3.42;;
10416;SDS011;5255;49.432;8.680;2022-07-22T06:58:09;6.95;;;4.20;;
10416;SDS011;5255;49.432;8.680;2022-07-22T07:00:36;4.90;;;4.05;;
10416;SDS011;5255;49.432;8.680;2022-07-22T07:03:03;4.93;;;4.28;;
10416;SDS011;5255;49.432;8.680;2022-07-22T07:05:32;8.50;;;4.50;;
10416;SDS011;5255;49.432;8.680;2022-07-22T07:08:00;5.53;;;4.40;;
10416;SDS011;5255;49.432;8.680;2022-07-22T07:10:27;5.55;;;4.22;;
10416;SDS011;5255;49.432;8.680;2022-07-22T07:12:55;6.95;;;4.15;;
10416;SDS011;5255;49.432;8.680;2022-07-22T07:15:22;5.30;;;3.95;;
10416;SDS011;5255;49.432;8.680;2022-07-22T07:17:50;5.00;;;4.13;;
10416;SDS011;5255;49.432;8.680;2022-07-22T07:20:17;6.22;;;3.95;;
10416;SDS011;5255;49.432;8.680;2022-07-22T07:22:46;5.65;;;4.50;;
10416;SDS011;5255;49.432;8.680;2022-07-22T07:25:13;5.82;;;4.18;;
10416;SDS011;5255;49.432;8.680;2022-07-22T07:27:41;4.93;;;3.88;;
10416;SDS011;5255;49.432;8.680;2022-07-22T07:30:09;7.35;;;4.45;;
10416;SDS011;5255;49.432;8.680;2022-07-22T07:32:37;6.95;;;4.47;;
10416;SDS011;5255;49.432;8.680;2022-07-22T07:35:05;5.10;;;4.07;;
10416;SDS011;5255;49.432;8.680;2022-07-22T07:37:33;5.25;;;4.15;;
10416;SDS011;5255;49.432;8.680;2022-07-22T07:40:08;5.05;;;4.07;;
10416;SDS011;5255;49.432;8.680;2022-07-22T07:42:36;6.03;;;4.38;;
10416;SDS011;5255;49.432;8.680;2022-07-22T07:45:03;7.22;;;4.32;;
10416;SDS011;5255;49.432;8.680;2022-07-22T07:47:31;7.00;;;4.25;;
10416;SDS011;5255;49.432;8.680;2022-07-22T07:49:58;6.88;;;4.53;;
10416;SDS011;5255;49.432;8.680;2022-07-22T07:52:27;5.65;;;4.40;;
10416;SDS011;5255;49.432;8.680;2022-07-22T07:54:54;7.85;;;4.18;;
10416;SDS011;5255;49.432;8.680;2022-07-22T07:57:23;5.80;;;4.20;;
10416;SDS011;5255;49.432;8.680;2022-07-22T07:59:50;5.05;;;3.97;;
10416;SDS011;5255;49.432;8.680;2022-07-22T08:02:17;4.65;;;4.18;;
10416;SDS011;5255;49.432;8.680;2022-07-22T08:04:44;7.78;;;4.32;;
10416;SDS011;5255;49.432;8.680;2022-07-22T08:07:11;5.53;;;4.32;;
10416;SDS011;5255;49.432;8.680;2022-07-22T08:09:39;5.60;;;4.15;;
10416;SDS011;5255;49.432;8.680;2022-07-22T08:12:06;5.93;;;4.18;;
10416;SDS011;5255;49.432;8.680;2022-07-22T08:14:35;5.63;;;4.40;;
10416;SDS011;5255;49.432;8.680;2022-07-22T08:17:02;4.82;;;4.00;;
10416;SDS011;5255;49.432;8.680;2022-07-22T08:19:29;4.57;;;4.07;;
10416;SDS011;5255;49.432;8.680;2022-07-22T08:21:57;6.40;;;4.07;;
10416;SDS011;5255;49.432;8.680;2022-07-22T08:24:24;5.05;;;3.80;;
10416;SDS011;5255;49.432;8.680;2022-07-22T08:26:53;4.47;;;3.80;;
10416;SDS011;5255;49.432;8.680;2022-07-22T08:29:27;7.97;;;3.78;;
10416;SDS011;5255;49.432;8.680;2022-07-22T08:31:56;6.57;;;4.10;;
10416;SDS011;5255;49.432;8.680;2022-07-22T08:34:23;3.75;;;3.30;;
10416;SDS011;5255;49.432;8.680;2022-07-22T08:36:50;5.88;;;4.18;;
10416;SDS011;5255;49.432;8.680;2022-07-22T08:39:17;5.22;;;4.18;;
10416;SDS011;5255;49.432;8.680;2022-07-22T08:41:44;4.78;;;3.97;;
10416;SDS011;5255;49.432;8.680;2022-07-22T08:44:12;5.68;;;4.00;;
10416;SDS011;5255;49.432;8.680;2022-07-22T08:46:39;4.82;;;3.88;;
10416;SDS011;5255;49.432;8.680;2022-07-22T08:49:11;4.55;;;3.70;;
10416;SDS011;5255;49.432;8.680;2022-07-22T08:51:39;5.28;;;3.80;;
10416;SDS011;5255;49.432;8.680;2022-07-22T08:54:07;4.13;;;3.70;;
10416;SDS011;5255;49.432;8.680;2022-07-22T08:56:34;6.47;;;3.70;;
10416;SDS011;5255;49.432;8.680;2022-07-22T08:59:03;4.50;;;3.78;;
10416;SDS011;5255;49.432;8.680;2022-07-22T09:01:31;4.07;;;3.67;;
10416;SDS011;5255;49.432;8.680;2022-07-22T09:03:59;7.00;;;4.07;;
10416;SDS011;5255;49.432;8.680;2022-07-22T09:06:27;4.47;;;4.00;;
10416;SDS011;5255;49.432;8.680;2022-07-22T09:08:59;4.93;;;3.90;;
10416;SDS011;5255;49.432;8.680;2022-07-22T09:11:27;4.15;;;3.75;;
10416;SDS011;5255;49.432;8.680;2022-07-22T09:13:56;4.97;;;4.22;;
10416;SDS011;5255;49.432;8.680;2022-07-22T09:16:37;4.30;;;3.90;;
10416;SDS011;5255;49.432;8.680;2022-07-22T09:19:05;4.30;;;3.72;;
10416;SDS011;5255;49.432;8.680;2022-07-22T09:21:35;4.25;;;3.72;;
10416;SDS011;5255;49.432;8.680;2022-07-22T09:24:04;6.32;;;4.00;;
10416;SDS011;5255;49.432;8.680;2022-07-22T09:26:32;4.80;;;3.83;;
10416;SDS011;5255;49.432;8.680;2022-07-22T09:29:01;4.22;;;3.53;;
10416;SDS011;5255;49.432;8.680;2022-07-22T09:31:31;5.65;;;4.40;;
10416;SDS011;5255;49.432;8.680;2022-07-22T09:33:59;5.35;;;4.10;;
10416;SDS011;5255;49.432;8.680;2022-07-22T09:36:27;6.80;;;4.35;;
10416;SDS011;5255;49.432;8.680;2022-07-22T09:38:56;4.53;;;4.05;;
10416;SDS011;5255;49.432;8.680;2022-07-22T09:41:23;7.20;;;3.97;;
10416;SDS011;5255;49.432;8.680;2022-07-22T09:43:50;4.60;;;4.20;;
10416;SDS011;5255;49.432;8.680;2022-07-22T09:46:21;6.20;;;4.30;;
10416;SDS011;5255;49.432;8.680;2022-07-22T09:49:00;6.95;;;4.65;;
10416;SDS011;5255;49.432;8.680;2022-07-22T09:51:28;4.97;;;4.47;;
10416;SDS011;5255;49.432;8.680;2022-07-22T09:53:57;6.15;;;4.28;;
10416;SDS011;5255;49.432;8.680;2022-07-22T09:56:25;5.35;;;4.20;;
10416;SDS011;5255;49.432;8.680;2022-07-22T09:58:55;4.85;;;4.07;;
10416;SDS011;5255;49.432;8.680;2022-07-22T10:01:22;4.82;;;4.07;;
10416;SDS011;5255;49.432;8.680;2022-07-22T10:03:50;5.35;;;4.40;;
10416;SDS011;5255;49.432;8.680;2022-07-22T10:06:19;5.60;;;4.20;;
10416;SDS011;5255;49.432;8.680;2022-07-22T10:08:47;5.50;;;4.28;;
10416;SDS011;5255;49.432;8.680;2022-07-22T10:11:17;4.30;;;3.90;;
10416;SDS011;5255;49.432;8.680;2022-07-22T10:13:45;4.28;;;3.88;;
10416;SDS011;5255;49.432;8.680;2022-07-22T10:16:13;5.57;;;3.95;;
10416;SDS011;5255;49.432;8.680;2022-07-22T10:18:43;11.45;;;4.78;;
10416;SDS011;5255;49.432;8.680;2022-07-22T10:21:12;6.80;;;4.30;;
10416;SDS011;5255;49.432;8.680;2022-07-22T10:26:52;4.72;;;4.22;;
10416;SDS011;5255;49.432;8.680;2022-07-22T10:29:24;4.60;;;4.10;;
10416;SDS011;5255;49.432;8.680;2022-07-22T10:40:51;5.68;;;4.40;;
10416;SDS011;5255;49.432;8.680;2022-07-22T10:43:21;5.57;;;4.03;;
10416;SDS011;5255;49.432;8.680;2022-07-22T10:45:51;4.95;;;4.07;;
10416;SDS011;5255;49.432;8.680;2022-07-22T10:48:20;4.95;;;3.97;;
10416;SDS011;5255;49.432;8.680;2022-07-22T10:50:53;4.65;;;4.20;;
10416;SDS011;5255;49.432;8.680;2022-07-22T10:53:47;5.60;;;4.05;;
10416;SDS011;5255;49.432;8.680;2022-07-22T10:56:22;7.00;;;4.03;;
10416;SDS011;5255;49.432;8.680;2022-07-22T10:58:57;4.25;;;3.85;;
10416;SDS011;5255;49.432;8.680;2022-07-22T11:01:36;5.60;;;4.60;;
10416;SDS011;5255;49.432;8.680;2022-07-22T11:04:09;4.40;;;4.00;;
10416;SDS011;5255;49.432;8.680;2022-07-22T11:06:39;5.25;;;4.00;;
10416;SDS011;5255;49.432;8.680;2022-07-22T11:09:07;5.78;;;4.00;;
10416;SDS011;5255;49.432;8.680;2022-07-22T11:11:44;4.88;;;4.10;;
10416;SDS011;5255;49.432;8.680;2022-07-22T11:17:04;5.53;;;4.07;;
10416;SDS011;5255;49.432;8.680;2022-07-22T11:19:33;4.95;;;4.45;;
10416;SDS011;5255;49.432;8.680;2022-07-22T11:22:03;4.75;;;3.95;;
10416;SDS011;5255;49.432;8.680;2022-07-22T11:24:32;4.82;;;4.15;;
10416;SDS011;5255;49.432;8.680;2022-07-22T11:27:00;4.43;;;4.03;;
10416;SDS011;5255;49.432;8.680;2022-07-22T11:29:29;4.55;;;4.15;;
10416;SDS011;5255;49.432;8.680;2022-07-22T11:32:00;5.32;;;4.15;;
10416;SDS011;5255;49.432;8.680;2022-07-22T11:34:29;5.40;;;4.18;;
10416;SDS011;5255;49.432;8.680;2022-07-22T11:36:56;4.38;;;3.97;;
10416;SDS011;5255;49.432;8.680;2022-07-22T11:39:25;4.25;;;3.85;;
10416;SDS011;5255;49.432;8.680;2022-07-22T11:41:54;5.47;;;3.97;;
10416;SDS011;5255;49.432;8.680;2022-07-22T11:44:23;5.68;;;4.30;;
10416;SDS011;5255;49.432;8.680;2022-07-22T11:46:52;4.10;;;3.72;;
10416;SDS011;5255;49.432;8.680;2022-07-22T11:49:24;5.72;;;4.28;;
10416;SDS011;5255;49.432;8.680;2022-07-22T11:51:53;6.30;;;4.35;;
10416;SDS011;5255;49.432;8.680;2022-07-22T11:54:20;4.82;;;4.15;;
10416;SDS011;5255;49.432;8.680;2022-07-22T11:56:48;4.68;;;4.20;;
10416;SDS011;5255;49.432;8.680;2022-07-22T11:59:16;4.53;;;3.95;;
10416;SDS011;5255;49.432;8.680;2022-07-22T12:01:44;4.20;;;3.80;;
10416;SDS011;5255;49.432;8.680;2022-07-22T12:04:14;5.63;;;4.18;;
10416;SDS011;5255;49.432;8.680;2022-07-22T12:06:43;7.05;;;4.13;;
10416;SDS011;5255;49.432;8.680;2022-07-22T12:09:12;5.57;;;4.70;;
10416;SDS011;5255;49.432;8.680;2022-07-22T12:11:41;6.07;;;4.10;;
10416;SDS011;5255;49.432;8.680;2022-07-22T12:14:10;6.47;;;4.00;;
10416;SDS011;5255;49.432;8.680;2022-07-22T12:16:39;4.90;;;4.18;;
10416;SDS011;5255;49.432;8.680;2022-07-22T12:19:07;5.05;;;4.53;;
10416;SDS011;5255;49.432;8.680;2022-07-22T12:21:36;4.18;;;3.75;;
10416;SDS011;5255;49.432;8.680;2022-07-22T12:24:24;5.22;;;3.78;;
10416;SDS011;5255;49.432;8.680;2022-07-22T12:26:52;6.40;;;4.10;;
10416;SDS011;5255;49.432;8.680;2022-07-22T12:29:22;4.57;;;4.18;;
10416;SDS011;5255;49.432;8.680;2022-07-22T12:31:52;4.65;;;4.00;;
10416;SDS011;5255;49.432;8.680;2022-07-22T12:34:30;4.85;;;3.95;;
10416;SDS011;5255;49.432;8.680;2022-07-22T12:36:59;5.05;;;3.95;;
10416;SDS011;5255;49.432;8.680;2022-07-22T12:39:30;6.18;;;4.32;;
10416;SDS011;5255;49.432;8.680;2022-07-22T12:41:57;4.88;;;4.38;;
10416;SDS011;5255;49.432;8.680;2022-07-22T12:44:25;4.65;;;4.15;;
10416;SDS011;5255;49.432;8.680;2022-07-22T12:46:53;6.18;;;4.35;;
10416;SDS011;5255;49.432;8.680;2022-07-22T12:49:22;7.07;;;4.00;;
10416;SDS011;5255;49.432;8.680;2022-07-22T12:52:04;4.47;;;3.72;;
10416;SDS011;5255;49.432;8.680;2022-07-22T12:54:34;5.47;;;3.92;;
10416;SDS011;5255;49.432;8.680;2022-07-22T12:57:02;4.70;;;4.30;;
10416;SDS011;5255;49.432;8.680;2022-07-22T12:59:30;4.57;;;4.00;;
10416;SDS011;5255;49.432;8.680;2022-07-22T13:01:58;5.28;;;4.03;;
10416;SDS011;5255;49.432;8.680;2022-07-22T13:04:25;4.72;;;4.18;;
10416;SDS011;5255;49.432;8.680;2022-07-22T13:06:52;4.40;;;3.70;;
10416;SDS011;5255;49.432;8.680;2022-07-22T13:09:19;4.30;;;3.75;;
10416;SDS011;5255;49.432;8.680;2022-07-22T13:11:48;6.57;;;3.80;;
10416;SDS011;5255;49.432;8.680;2022-07-22T13:14:16;4.18;;;3.85;;
10416;SDS011;5255;49.432;8.680;2022-07-22T13:16:43;5.57;;;4.00;;
10416;SDS011;5255;49.432;8.680;2022-07-22T13:19:10;5.03;;;3.65;;
10416;SDS011;5255;49.432;8.680;2022-07-22T13:21:37;3.95;;;3.60;;
10416;SDS011;5255;49.432;8.680;2022-07-22T13:24:05;4.80;;;3.63;;
10416;SDS011;5255;49.432;8.680;2022-07-22T13:26:32;4.78;;;3.72;;
10416;SDS011;5255;49.432;8.680;2022-07-22T13:29:01;4.15;;;3.75;;
10416;SDS011;5255;49.432;8.680;2022-07-22T13:31:28;5.78;;;4.28;;
10416;SDS011;5255;49.432;8.680;2022-07-22T13:33:56;4.50;;;4.10;;
10416;SDS011;5255;49.432;8.680;2022-07-22T13:36:23;4.22;;;3.83;;
10416;SDS011;5255;49.432;8.680;2022-07-22T13:38:53;5.53;;;3.67;;
10416;SDS011;5255;49.432;8.680;2022-07-22T13:41:20;5.35;;;4.05;;
10416;SDS011;5255;49.432;8.680;2022-07-22T13:43:47;4.57;;;3.92;;
10416;SDS011;5255;49.432;8.680;2022-07-22T13:46:17;4.32;;;3.70;;
10416;SDS011;5255;49.432;8.680;2022-07-22T13:48:45;4.32;;;3.75;;
10416;SDS011;5255;49.432;8.680;2022-07-22T13:51:12;5.97;;;3.92;;
10416;SDS011;5255;49.432;8.680;2022-07-22T13:53:40;5.57;;;3.70;;
10416;SDS011;5255;49.432;8.680;2022-07-22T13:56:08;4.32;;;3.92;;
10416;SDS011;5255;49.432;8.680;2022-07-22T13:58:37;5.75;;;4.13;;
10416;SDS011;5255;49.432;8.680;2022-07-22T14:01:06;7.70;;;3.95;;
10416;SDS011;5255;49.432;8.680;2022-07-22T14:03:35;4.30;;;3.90;;
10416;SDS011;5255;49.432;8.680;2022-07-22T14:06:02;5.80;;;4.13;;
10416;SDS011;5255;49.432;8.680;2022-07-22T14:08:30;5.03;;;4.18;;
10416;SDS011;5255;49.432;8.680;2022-07-22T14:10:57;5.03;;;3.90;;
10416;SDS011;5255;49.432;8.680;2022-07-22T14:13:25;4.45;;;3.42;;
10416;SDS011;5255;49.432;8.680;2022-07-22T14:15:52;6.07;;;3.92;;
10416;SDS011;5255;49.432;8.680;2022-07-22T14:18:19;6.53;;;3.70;;
10416;SDS011;5255;49.432;8.680;2022-07-22T14:20:48;4.93;;;3.90;;
10416;SDS011;5255;49.432;8.680;2022-07-22T14:23:15;6.28;;;3.95;;
10416;SDS011;5255;49.432;8.680;2022-07-22T14:25:48;4.57;;;3.45;;
10416;SDS011;5255;49.432;8.680;2022-07-22T14:28:15;4.55;;;3.88;;
10416;SDS011;5255;49.432;8.680;2022-07-22T14:30:42;4.35;;;3.90;;
10416;SDS011;5255;49.432;8.680;2022-07-22T14:33:09;4.05;;;3.67;;
10416;SDS011;5255;49.432;8.680;2022-07-22T14:35:36;4.53;;;4.13;;
10416;SDS011;5255;49.432;8.680;2022-07-22T14:38:05;9.48;;;3.85;;
10416;SDS011;5255;49.432;8.680;2022-07-22T14:40:32;4.05;;;3.65;;
10416;SDS011;5255;49.432;8.680;2022-07-22T14:42:59;5.35;;;3.90;;
10416;SDS011;5255;49.432;8.680;2022-07-22T14:45:27;8.32;;;4.25;;
10416;SDS011;5255;49.432;8.680;2022-07-22T14:47:54;4.93;;;3.70;;
10416;SDS011;5255;49.432;8.680;2022-07-22T14:50:21;4.85;;;4.07;;
10416;SDS011;5255;49.432;8.680;2022-07-22T14:52:48;7.97;;;4.82;;
10416;SDS011;5255;49.432;8.680;2022-07-22T14:55:17;5.25;;;4.07;;
10416;SDS011;5255;49.432;8.680;2022-07-22T14:57:44;3.40;;;3.13;;
10416;SDS011;5255;49.432;8.680;2022-07-22T15:00:11;5.07;;;4.13;;
10416;SDS011;5255;49.432;8.680;2022-07-22T15:02:38;4.20;;;3.80;;
10416;SDS011;5255;49.432;8.680;2022-07-22T15:05:06;4.88;;;4.40;;
10416;SDS011;5255;49.432;8.680;2022-07-22T15:07:34;5.85;;;4.20;;
10416;SDS011;5255;49.432;8.680;2022-07-22T15:10:01;4.60;;;4.22;;
10416;SDS011;5255;49.432;8.680;2022-07-22T15:12:31;4.93;;;4.10;;
10416;SDS011;5255;49.432;8.680;2022-07-22T15:14:58;4.22;;;3.85;;
10416;SDS011;5255;49.432;8.680;2022-07-22T15:17:25;3.85;;;3.45;;
10416;SDS011;5255;49.432;8.680;2022-07-22T15:19:52;4.05;;;3.53;;